Time;durP1;ratioP1;P1;durP2;ratioP2;P2;SDS_P1;SDS_P2;PMS_P1;PMS_P2;Temp;Humidity;BMP_temperature;BMP_pressure;BME280_temperature;BME280_humidity;BME280_pressure;Samples;Min_cycle;Max_cycle;Signal;HPM_P1;HPM_P2
2024/01/22 00:04:23;;;;;;;0.00;0.00;;;-2.10;66.00;;;;;;20907967;28;20117;-42
2024/01/22 00:14:25;;;;;;;0.17;0.00;;;-2.00;69.10;;;;;;20908225;28;20744;-43
2024/01/22 00:24:26;;;;;;;0.10;0.00;;;-1.70;65.30;;;;;;20907470;28;20040;-42
2024/01/22 00:34:28;;;;;;;0.00;0.00;;;-1.80;66.30;;;;;;20883248;28;20772;-44
2024/01/22 00:44:30;;;;;;;0.00;0.00;;;-1.90;66.90;;;;;;20834929;28;20043;-42
2024/01/22 00:54:31;;;;;;;0.20;0.00;;;-1.80;64.30;;;;;;20869285;28;20391;-42
2024/01/22 01:04:33;;;;;;;0.00;0.00;;;-1.80;64.40;;;;;;20865831;28;20036;-43
2024/01/22 01:14:35;;;;;;;0.00;0.00;;;-1.20;60.90;;;;;;20876093;28;20830;-42
2024/01/22 01:24:37;;;;;;;0.00;0.00;;;-1.00;59.00;;;;;;20881127;28;20105;-42
2024/01/22 01:34:39;;;;;;;0.00;0.00;;;-1.50;63.80;;;;;;20880191;28;20048;-42
2024/01/22 01:44:51;;;;;;;0.00;0.00;;;-1.40;59.80;;;;;;20920449;28;20048;-42
2024/01/22 01:54:56;;;;;;;0.40;0.00;;;-1.40;62.00;;;;;;20921451;28;20052;-42
2024/01/22 02:04:58;;;;;;;0.00;0.00;;;-1.70;63.90;;;;;;20918072;28;20040;-42
2024/01/22 02:14:59;;;;;;;0.00;0.00;;;-1.50;62.60;;;;;;20918380;28;20040;-42
2024/01/22 02:25:01;;;;;;;0.00;0.00;;;-1.70;61.80;;;;;;20917797;28;20121;-42
2024/01/22 02:35:03;;;;;;;0.00;0.00;;;-1.70;62.90;;;;;;20907989;28;20109;-42
2024/01/22 02:45:07;;;;;;;1.08;0.03;;;-1.90;62.40;;;;;;20875849;28;20647;-44
2024/01/22 02:55:09;;;;;;;0.03;0.00;;;-2.10;64.40;;;;;;20879837;28;20040;-42
2024/01/22 03:05:14;;;;;;;0.00;0.00;;;-2.00;66.70;;;;;;20873045;28;20048;-42
2024/01/22 03:15:15;;;;;;;0.00;0.00;;;-2.40;64.80;;;;;;20872605;28;20036;-43
2024/01/22 03:25:20;;;;;;;0.00;0.00;;;-2.40;66.30;;;;;;20871889;28;20061;-44
2024/01/22 03:35:22;;;;;;;0.00;0.00;;;-2.50;63.90;;;;;;20865639;28;20048;-42
2024/01/22 03:45:24;;;;;;;0.22;0.00;;;-2.40;66.40;;;;;;20871339;28;21162;-41
2024/01/22 03:55:25;;;;;;;0.20;0.00;;;-2.40;69.20;;;;;;20873090;28;20040;-42
2024/01/22 04:05:27;;;;;;;0.00;0.00;;;-2.30;65.30;;;;;;20867976;28;20061;-43
2024/01/22 04:15:29;;;;;;;0.00;0.00;;;-2.40;66.10;;;;;;20866861;28;20048;-42
2024/01/22 04:25:30;;;;;;;0.00;0.00;;;-2.30;67.30;;;;;;20866433;28;20999;-42
2024/01/22 04:35:32;;;;;;;0.00;0.00;;;-2.30;67.40;;;;;;20865895;28;20097;-44
2024/01/22 04:45:34;;;;;;;0.10;0.00;;;-2.20;68.00;;;;;;20867122;28;20093;-42
2024/01/22 04:55:39;;;;;;;0.00;0.00;;;-2.10;68.60;;;;;;20883577;28;20038;-42
2024/01/22 05:05:40;;;;;;;0.88;0.00;;;-2.00;67.90;;;;;;20871018;28;20071;-42
2024/01/22 05:15:42;;;;;;;0.00;0.00;;;-2.00;70.00;;;;;;20882826;28;20043;-41
2024/01/22 05:25:44;;;;;;;0.00;0.00;;;-1.90;66.80;;;;;;20878874;28;20126;-42
2024/01/22 05:35:48;;;;;;;0.00;0.00;;;-1.80;66.60;;;;;;20866742;28;20121;-46
2024/01/22 05:45:49;;;;;;;0.68;0.00;;;-1.70;66.90;;;;;;20879021;28;20049;-43
2024/01/22 05:55:51;;;;;;;0.00;0.00;;;-1.80;65.40;;;;;;20875411;28;20382;-42
2024/01/22 06:05:53;;;;;;;0.73;0.00;;;-1.80;66.70;;;;;;20859821;28;20477;-43
2024/01/22 06:15:55;;;;;;;0.00;0.00;;;-1.80;66.30;;;;;;20879791;28;20036;-42
2024/01/22 06:25:57;;;;;;;0.00;0.00;;;-1.70;68.50;;;;;;20841213;28;20102;-42
2024/01/22 06:35:59;;;;;;;0.08;0.00;;;-1.60;64.90;;;;;;20870071;28;20104;-42
2024/01/22 06:46:10;;;;;;;;;;;-1.50;64.30;;;;;;20873296;28;20031;-43
2024/01/22 06:56:11;;;;;;;0.63;0.00;;;-1.40;66.60;;;;;;20871202;28;20435;-44
2024/01/22 07:06:13;;;;;;;0.00;0.00;;;-1.40;66.20;;;;;;20871174;28;20043;-43
2024/01/22 07:16:15;;;;;;;0.00;0.00;;;-1.40;67.00;;;;;;20868030;28;20044;-42
2024/01/22 07:26:20;;;;;;;0.00;0.00;;;-1.10;65.40;;;;;;20868816;28;20101;-42
2024/01/22 07:36:21;;;;;;;0.00;0.00;;;-0.80;63.30;;;;;;20848552;28;20036;-42
2024/01/22 07:46:23;;;;;;;0.75;0.03;;;-0.70;64.20;;;;;;20869820;28;20040;-42
2024/01/22 07:56:25;;;;;;;0.10;0.10;;;-0.40;65.10;;;;;;20865591;28;20078;-42
2024/01/22 08:06:27;;;;;;;0.20;0.10;;;0.20;64.40;;;;;;20866838;28;20039;-42
2024/01/22 08:16:28;;;;;;;0.00;0.00;;;1.10;62.90;;;;;;20846886;28;20094;-42
2024/01/22 08:26:30;;;;;;;0.10;0.00;;;2.30;62.70;;;;;;20866154;28;20040;-44
2024/01/22 08:36:35;;;;;;;0.35;0.30;;;3.60;58.90;;;;;;20877389;28;20040;-47
2024/01/22 08:46:37;;;;;;;0.30;0.15;;;4.20;60.50;;;;;;20904456;28;20040;-42
2024/01/22 08:56:39;;;;;;;0.10;0.00;;;4.10;59.90;;;;;;20902712;28;20039;-43
2024/01/22 09:06:40;;;;;;;0.30;0.00;;;4.90;55.90;;;;;;20899182;28;20688;-45
2024/01/22 09:16:42;;;;;;;0.05;0.05;;;5.40;53.60;;;;;;20904403;28;20061;-43
2024/01/22 09:26:44;;;;;;;0.10;0.00;;;6.20;52.10;;;;;;20901192;28;20036;-44
2024/01/22 09:36:46;;;;;;;0.13;0.10;;;6.70;48.50;;;;;;20914098;28;20086;-44
2024/01/22 09:46:49;;;;;;;0.43;0.10;;;6.80;50.10;;;;;;20919751;28;20035;-47
2024/01/22 09:56:55;;;;;;;0.40;0.10;;;6.90;50.40;;;;;;20911806;28;20109;-44
2024/01/22 10:07:00;;;;;;;1.88;0.10;;;7.20;50.00;;;;;;20914289;28;21835;-47
2024/01/22 10:17:18;;;;;;;0.40;0.20;;;8.10;50.10;;;;;;20912916;28;21028;-44
2024/01/22 10:27:20;;;;;;;0.88;0.10;;;7.80;50.50;;;;;;20914716;28;20070;-44
2024/01/22 10:37:28;;;;;;;0.52;0.20;;;7.90;51.20;;;;;;20911755;28;20097;-44
2024/01/22 10:47:31;;;;;;;0.55;0.20;;;7.90;51.90;;;;;;20911250;28;21459;-43
2024/01/22 10:57:41;;;;;;;0.40;0.15;;;7.80;50.20;;;;;;20912213;28;20497;-44
2024/01/22 11:07:48;;;;;;;0.32;0.20;;;8.10;53.10;;;;;;20910505;28;20040;-43
2024/01/22 11:17:50;;;;;;;0.68;0.30;;;8.60;51.20;;;;;;20909054;28;20044;-45
2024/01/22 11:28:09;;;;;;;0.98;0.50;;;8.60;52.60;;;;;;20908334;28;21203;-43
2024/01/22 11:38:11;;;;;;;1.50;0.52;;;8.00;51.60;;;;;;20885568;28;20052;-45
2024/01/22 11:48:17;;;;;;;0.90;0.30;;;7.40;53.50;;;;;;20864622;28;20425;-43
2024/01/22 11:58:19;;;;;;;0.95;0.40;;;7.10;53.30;;;;;;20865822;28;20048;-43
2024/01/22 12:08:21;;;;;;;0.88;0.30;;;7.20;52.30;;;;;;20827273;28;20037;-43
2024/01/22 12:18:24;;;;;;;2.05;0.35;;;7.70;54.70;;;;;;20863688;28;20036;-43
2024/01/22 12:28:26;;;;;;;1.60;0.65;;;8.10;54.30;;;;;;20865051;28;20032;-43
2024/01/22 12:38:35;;;;;;;0.90;0.50;;;8.10;54.00;;;;;;20882401;28;21198;-47
2024/01/22 12:48:41;;;;;;;1.20;0.63;;;8.20;55.00;;;;;;20900268;28;20044;-44
2024/01/22 12:58:43;;;;;;;1.23;0.50;;;8.20;53.90;;;;;;20902720;28;20145;-49
2024/01/22 13:08:45;;;;;;;1.85;0.63;;;7.70;55.10;;;;;;20911103;28;20036;-44
2024/01/22 13:18:46;;;;;;;3.55;0.90;;;7.40;56.00;;;;;;20918760;28;20044;-44
2024/01/22 13:28:48;;;;;;;1.50;0.80;;;6.70;57.80;;;;;;20916681;28;20117;-44
2024/01/22 13:38:50;;;;;;;2.55;1.25;;;6.30;59.00;;;;;;20916044;28;20098;-47
2024/01/22 13:48:55;;;;;;;1.20;0.60;;;5.80;60.30;;;;;;20917150;28;20040;-43
2024/01/22 13:58:56;;;;;;;1.88;0.88;;;5.50;59.60;;;;;;20915754;28;20188;-43
2024/01/22 14:08:59;;;;;;;2.50;0.80;;;5.20;57.80;;;;;;20913750;28;20090;-44
2024/01/22 14:19:01;;;;;;;1.50;0.90;;;5.10;60.90;;;;;;20912679;28;21663;-44
2024/01/22 14:29:03;;;;;;;1.77;0.90;;;5.00;60.20;;;;;;20913415;28;20093;-45
2024/01/22 14:39:05;;;;;;;2.42;1.05;;;4.80;62.00;;;;;;20888058;28;20671;-43
2024/01/22 14:49:10;;;;;;;1.50;0.80;;;4.40;60.10;;;;;;20872947;28;21101;-44
2024/01/22 14:59:12;;;;;;;1.63;0.80;;;3.90;63.10;;;;;;20870520;28;20166;-45
2024/01/22 15:09:16;;;;;;;1.88;1.10;;;3.70;63.80;;;;;;20869696;28;20036;-44
2024/01/22 15:19:18;;;;;;;3.88;1.73;;;3.30;67.50;;;;;;20867145;28;20043;-43
2024/01/22 15:29:22;;;;;;;4.03;1.50;;;2.80;65.70;;;;;;20834299;28;20437;-43
2024/01/22 15:39:26;;;;;;;4.43;1.30;;;2.30;68.70;;;;;;20893057;28;20055;-44
2024/01/22 15:49:28;;;;;;;2.40;0.88;;;2.10;71.40;;;;;;20887022;28;20092;-45
2024/01/22 15:59:30;;;;;;;1.10;0.70;;;1.90;68.00;;;;;;20907399;28;20039;-43
2024/01/22 16:09:32;;;;;;;1.77;0.70;;;1.90;69.60;;;;;;20908044;28;20047;-43
2024/01/22 16:19:35;;;;;;;2.05;0.73;;;1.60;63.20;;;;;;20904672;28;20044;-46
2024/01/22 16:29:37;;;;;;;1.83;0.70;;;1.30;63.80;;;;;;20879946;28;20129;-44
2024/01/22 16:39:39;;;;;;;1.02;0.55;;;1.10;63.50;;;;;;20881415;28;20133;-45
2024/01/22 16:49:43;;;;;;;1.77;0.60;;;1.30;54.30;;;;;;20866106;28;20037;-44
2024/01/22 16:59:45;;;;;;;0.90;0.52;;;1.50;57.50;;;;;;20863340;28;20396;-43
2024/01/22 17:09:47;;;;;;;1.10;0.47;;;1.80;58.50;;;;;;20863680;28;20125;-45
2024/01/22 17:19:49;;;;;;;3.80;0.82;;;1.50;60.20;;;;;;20864322;28;20173;-43
2024/01/22 17:29:50;;;;;;;1.67;0.52;;;1.30;62.60;;;;;;20861614;28;20036;-46
2024/01/22 17:39:52;;;;;;;1.80;0.90;;;1.20;64.60;;;;;;20888490;28;20098;-43
2024/01/22 17:49:54;;;;;;;5.93;1.42;;;1.20;67.80;;;;;;20905894;28;20090;-44
2024/01/22 17:59:56;;;;;;;4.78;1.88;;;1.30;66.20;;;;;;20911937;28;20066;-43
2024/01/22 18:10:01;;;;;;;3.60;1.80;;;1.10;64.20;;;;;;20918148;28;20807;-45
2024/01/22 18:20:03;;;;;;;5.90;2.63;;;1.00;65.10;;;;;;20916683;28;20039;-43
2024/01/22 18:30:07;;;;;;;9.68;2.65;;;0.80;67.20;;;;;;20917227;28;20036;-47
2024/01/22 18:40:09;;;;;;;3.13;1.45;;;0.90;66.10;;;;;;20890196;28;20051;-42
2024/01/22 18:50:11;;;;;;;3.35;1.80;;;0.90;67.80;;;;;;20874107;28;20493;-43
2024/01/22 19:00:15;;;;;;;2.95;1.77;;;1.70;65.60;;;;;;20874190;28;20044;-45
2024/01/22 19:10:17;;;;;;;1.42;0.30;;;1.70;71.20;;;;;;20872655;28;21201;-42
2024/01/22 19:20:18;;;;;;;1.52;0.47;;;2.80;80.40;;;;;;20870749;28;20401;-42
2024/01/22 19:30:20;;;;;;;0.77;0.30;;;3.20;90.20;;;;;;20870449;28;20101;-45
2024/01/22 19:40:22;;;;;;;1.42;0.20;;;3.30;90.60;;;;;;20898284;28;20137;-43
2024/01/22 19:50:27;;;;;;;1.40;0.20;;;3.60;89.20;;;;;;20867382;28;20051;-42
2024/01/22 20:00:29;;;;;;;1.10;0.50;;;3.80;89.70;;;;;;20907323;28;20089;-43
2024/01/22 20:10:31;;;;;;;1.50;0.55;;;3.60;95.20;;;;;;20909166;28;20040;-43
2024/01/22 20:20:33;;;;;;;1.13;0.30;;;3.40;97.10;;;;;;20907323;28;20092;-45
2024/01/22 20:30:34;;;;;;;0.55;0.20;;;3.60;98.50;;;;;;20907410;28;20093;-45
2024/01/22 20:40:41;;;;;;;0.30;0.20;;;3.70;97.70;;;;;;20875421;28;20117;-45
2024/01/22 20:50:43;;;;;;;1.00;0.30;;;3.60;99.10;;;;;;20866554;28;20078;-46
2024/01/22 21:00:47;;;;;;;1.88;0.20;;;3.60;99.90;;;;;;20868636;28;20180;-44
2024/01/22 21:10:48;;;;;;;0.20;0.10;;;3.60;99.90;;;;;;20864657;28;20539;-44
2024/01/22 21:20:53;;;;;;;0.20;0.10;;;3.60;99.90;;;;;;20850680;28;20040;-44
2024/01/22 21:30:55;;;;;;;0.40;0.10;;;3.70;99.90;;;;;;20872600;28;20032;-43
2024/01/22 21:41:00;;;;;;;0.80;0.22;;;4.00;99.30;;;;;;20911243;28;20093;-44
2024/01/22 21:51:02;;;;;;;0.60;0.20;;;4.00;98.70;;;;;;20920431;28;20044;-43
2024/01/22 22:01:04;;;;;;;1.98;0.20;;;4.20;99.90;;;;;;20916957;28;20065;-43
2024/01/22 22:11:07;;;;;;;2.78;0.20;;;4.10;99.90;;;;;;20918331;28;20421;-44
2024/01/22 22:21:12;;;;;;;1.33;0.22;;;3.90;99.90;;;;;;20917396;28;20857;-43
2024/01/22 22:31:14;;;;;;;0.40;0.20;;;3.80;99.50;;;;;;20916260;28;20036;-42
2024/01/22 22:41:16;;;;;;;0.60;0.10;;;3.60;99.60;;;;;;20883795;28;20137;-42
2024/01/22 22:51:17;;;;;;;0.52;0.25;;;4.20;93.40;;;;;;20873041;28;20036;-42
2024/01/22 23:01:20;;;;;;;0.30;0.20;;;4.40;96.40;;;;;;20875165;28;20524;-44
2024/01/22 23:11:22;;;;;;;0.85;0.20;;;4.10;95.60;;;;;;20847569;28;20064;-42
2024/01/22 23:21:24;;;;;;;1.80;0.22;;;4.00;98.20;;;;;;20871295;28;21516;-42
2024/01/22 23:31:25;;;;;;;0.55;0.22;;;4.00;98.10;;;;;;20868342;28;20558;-42
2024/01/22 23:41:27;;;;;;;1.30;0.50;;;4.10;97.40;;;;;;20833244;28;20691;-43
2024/01/22 23:51:29;;;;;;;2.45;0.85;;;3.90;97.20;;;;;;20828682;28;20036;-42
